Bow Valley, Alberta

12:47 PM MDT on July 05, 2015 (GMT -0600)
Lac des Arcs | | Change Station
CLOSE
Current Station
Personal Weather Station
Location: Lac Des Arcs, ALBERTA
Elevation: 4288 ft
Nearby Weather Stations

Elev 4288 ft 51.05 °N, 115.16 °W | Updated 1 minute ago

Scattered Clouds
Scattered Clouds
55.7 °F
Feels Like 55.7 °F
N
0.0
Wind Variable Wind from NE
Gusts 1.0 mph

Today is forecast to be nearly the same temperature as yesterday.

Today
High -- | Low -- °F
--% Chance of Precip.
Yesterday
High -- | Low -- °F
Precip. -- in
5:32 AM 9:56 PM
Waning Gibbous, 83% visible
Pressure 30.25 in
Visibility 9.0 miles
Clouds Scattered Clouds 3200 ft
Scattered Clouds 7500 ft
Dew Point 46 °F
Humidity 71%
Rainfall 0.07 in
Snow Depth Not available.
UV 7 out of 12
Pollen Not available.
Air Quality Not available.
Flu Activity Not available.
METAR CYBW 051800Z AUTO 35015G21KT 9SM SCT032 SCT075 14/06 A3022 RMK SLP243 DENSITY ALT 4400FT

More Conditions Fewer Conditions

Pressure 30.25 in
Visibility 9.0 miles
Clouds Scattered Clouds 3200 ft
Scattered Clouds 7500 ft
Dew Point 46 °F
Humidity 71%
Rainfall 0.07 in
Snow Depth Not available.
UV 7 out of 12
Pollen Not available.
Air Quality Not available.
Flu Activity Not available.
METAR CYBW 051800Z AUTO 35015G21KT 9SM SCT032 SCT075 14/06 A3022 RMK SLP243 DENSITY ALT 4400FT

More Conditions Fewer Conditions

10-Day Weather Forecast

×

Almanac

Astronomy

Jul. 05, 2015 Rise Set
Actual Time
Civil Twilight
Nautical Twilight
Astronomical Twilight
Moon
Length of Visible Light
Length of Day
Tomorrow will be .
, % of the Moon is Illuminated

Today's Extremes

Country Highs Country Lows

Community

WunderPhotos

Upload Photos

1,835,346 photos uploaded!

WunderBlogs® & News

Nearby

Air Quality

  Air Quality AQ Index Pollutant
Not available.

Snow Depth

Station Depth Elevation

Earthquake Activity

City Distance Mag. Time & Date
Minimum magnitude displayed is 2.5.

Coastal Water Temperatures

Place Temperature

Stations

Nearby Weather Stations

Station Location Temp. Windchill Dew Point Humidity Wind Precip. Elev Updated Type